sensor_id;sensor_type;location;lat;lon;timestamp;P1;durP1;ratioP1;P2;durP2;ratioP2
16416;SDS011;8317;52.186;5.688;2023-05-14T00:02:13;10.30;;;7.18;;
16416;SDS011;8317;52.186;5.688;2023-05-14T00:04:40;11.18;;;7.63;;
16416;SDS011;8317;52.186;5.688;2023-05-14T00:07:07;10.38;;;6.80;;
16416;SDS011;8317;52.186;5.688;2023-05-14T00:09:34;11.18;;;7.43;;
16416;SDS011;8317;52.186;5.688;2023-05-14T00:12:03;13.13;;;7.95;;
16416;SDS011;8317;52.186;5.688;2023-05-14T00:14:30;13.18;;;8.55;;
16416;SDS011;8317;52.186;5.688;2023-05-14T00:16:58;13.75;;;7.93;;
16416;SDS011;8317;52.186;5.688;2023-05-14T00:19:25;12.07;;;6.85;;
16416;SDS011;8317;52.186;5.688;2023-05-14T00:21:53;15.55;;;8.02;;
16416;SDS011;8317;52.186;5.688;2023-05-14T00:24:20;17.48;;;8.57;;
16416;SDS011;8317;52.186;5.688;2023-05-14T00:26:47;13.43;;;8.20;;
16416;SDS011;8317;52.186;5.688;2023-05-14T00:29:16;14.35;;;8.13;;
16416;SDS011;8317;52.186;5.688;2023-05-14T00:31:43;18.23;;;8.70;;
16416;SDS011;8317;52.186;5.688;2023-05-14T00:34:10;13.30;;;7.90;;
16416;SDS011;8317;52.186;5.688;2023-05-14T00:36:37;12.98;;;7.82;;
16416;SDS011;8317;52.186;5.688;2023-05-14T00:39:05;12.48;;;8.05;;
16416;SDS011;8317;52.186;5.688;2023-05-14T00:41:32;16.25;;;7.80;;
16416;SDS011;8317;52.186;5.688;2023-05-14T00:43:59;18.02;;;8.82;;
16416;SDS011;8317;52.186;5.688;2023-05-14T00:46:28;14.13;;;8.43;;
16416;SDS011;8317;52.186;5.688;2023-05-14T00:48:55;16.42;;;9.07;;
16416;SDS011;8317;52.186;5.688;2023-05-14T00:51:23;11.45;;;7.20;;
16416;SDS011;8317;52.186;5.688;2023-05-14T00:53:50;12.90;;;7.88;;
16416;SDS011;8317;52.186;5.688;2023-05-14T00:56:17;14.85;;;7.95;;
16416;SDS011;8317;52.186;5.688;2023-05-14T00:58:45;14.05;;;8.45;;
16416;SDS011;8317;52.186;5.688;2023-05-14T01:01:12;11.68;;;7.25;;
16416;SDS011;8317;52.186;5.688;2023-05-14T01:03:41;12.88;;;7.60;;
16416;SDS011;8317;52.186;5.688;2023-05-14T01:06:10;14.55;;;7.68;;
16416;SDS011;8317;52.186;5.688;2023-05-14T01:08:45;15.43;;;8.45;;
16416;SDS011;8317;52.186;5.688;2023-05-14T01:11:14;12.50;;;8.15;;
16416;SDS011;8317;52.186;5.688;2023-05-14T01:13:45;14.38;;;7.95;;
16416;SDS011;8317;52.186;5.688;2023-05-14T01:16:15;16.70;;;8.32;;
16416;SDS011;8317;52.186;5.688;2023-05-14T01:18:48;17.75;;;8.50;;
16416;SDS011;8317;52.186;5.688;2023-05-14T01:21:35;14.77;;;8.05;;
16416;SDS011;8317;52.186;5.688;2023-05-14T01:24:02;13.80;;;8.13;;
16416;SDS011;8317;52.186;5.688;2023-05-14T01:26:30;14.63;;;9.40;;
16416;SDS011;8317;52.186;5.688;2023-05-14T01:28:59;14.80;;;8.05;;
16416;SDS011;8317;52.186;5.688;2023-05-14T01:31:27;11.63;;;7.97;;
16416;SDS011;8317;52.186;5.688;2023-05-14T01:33:56;18.40;;;8.70;;
16416;SDS011;8317;52.186;5.688;2023-05-14T01:36:24;12.82;;;7.07;;
16416;SDS011;8317;52.186;5.688;2023-05-14T01:38:54;17.27;;;8.43;;
16416;SDS011;8317;52.186;5.688;2023-05-14T01:41:22;14.90;;;8.02;;
16416;SDS011;8317;52.186;5.688;2023-05-14T01:43:51;12.20;;;7.53;;
16416;SDS011;8317;52.186;5.688;2023-05-14T01:46:18;17.35;;;8.77;;
16416;SDS011;8317;52.186;5.688;2023-05-14T01:48:48;13.77;;;7.95;;
16416;SDS011;8317;52.186;5.688;2023-05-14T01:51:15;18.52;;;6.93;;
16416;SDS011;8317;52.186;5.688;2023-05-14T01:53:42;18.13;;;7.65;;
16416;SDS011;8317;52.186;5.688;2023-05-14T01:56:11;11.68;;;6.78;;
16416;SDS011;8317;52.186;5.688;2023-05-14T01:58:38;13.90;;;7.72;;
16416;SDS011;8317;52.186;5.688;2023-05-14T02:01:05;15.10;;;8.35;;
16416;SDS011;8317;52.186;5.688;2023-05-14T02:03:32;12.30;;;7.80;;
16416;SDS011;8317;52.186;5.688;2023-05-14T02:05:59;18.23;;;7.85;;
16416;SDS011;8317;52.186;5.688;2023-05-14T02:08:26;12.60;;;7.53;;
16416;SDS011;8317;52.186;5.688;2023-05-14T02:10:53;9.98;;;7.20;;
16416;SDS011;8317;52.186;5.688;2023-05-14T02:13:22;11.15;;;7.40;;
16416;SDS011;8317;52.186;5.688;2023-05-14T02:15:49;13.13;;;7.65;;
16416;SDS011;8317;52.186;5.688;2023-05-14T02:18:16;12.18;;;7.57;;
16416;SDS011;8317;52.186;5.688;2023-05-14T02:20:43;12.60;;;7.43;;
16416;SDS011;8317;52.186;5.688;2023-05-14T02:23:11;14.52;;;7.43;;
16416;SDS011;8317;52.186;5.688;2023-05-14T02:25:38;15.30;;;6.82;;
16416;SDS011;8317;52.186;5.688;2023-05-14T02:28:05;10.30;;;6.88;;
16416;SDS011;8317;52.186;5.688;2023-05-14T02:30:33;11.85;;;7.53;;
16416;SDS011;8317;52.186;5.688;2023-05-14T02:33:01;12.02;;;7.97;;
16416;SDS011;8317;52.186;5.688;2023-05-14T02:35:28;13.98;;;7.43;;
16416;SDS011;8317;52.186;5.688;2023-05-14T02:37:55;12.68;;;7.88;;
16416;SDS011;8317;52.186;5.688;2023-05-14T02:40:23;12.00;;;7.03;;
16416;SDS011;8317;52.186;5.688;2023-05-14T02:42:50;12.18;;;7.30;;
16416;SDS011;8317;52.186;5.688;2023-05-14T02:45:17;14.18;;;8.05;;
16416;SDS011;8317;52.186;5.688;2023-05-14T02:47:47;14.38;;;7.97;;
16416;SDS011;8317;52.186;5.688;2023-05-14T02:50:14;14.00;;;8.27;;
16416;SDS011;8317;52.186;5.688;2023-05-14T02:52:41;12.85;;;7.22;;
16416;SDS011;8317;52.186;5.688;2023-05-14T02:55:08;11.30;;;6.80;;
16416;SDS011;8317;52.186;5.688;2023-05-14T02:57:36;11.82;;;6.90;;
16416;SDS011;8317;52.186;5.688;2023-05-14T03:00:04;13.55;;;7.30;;
16416;SDS011;8317;52.186;5.688;2023-05-14T03:02:31;11.95;;;8.18;;
16416;SDS011;8317;52.186;5.688;2023-05-14T03:05:00;15.05;;;7.90;;
16416;SDS011;8317;52.186;5.688;2023-05-14T03:07:27;12.48;;;7.70;;
16416;SDS011;8317;52.186;5.688;2023-05-14T03:09:54;15.00;;;8.23;;
16416;SDS011;8317;52.186;5.688;2023-05-14T03:12:21;15.32;;;7.28;;
16416;SDS011;8317;52.186;5.688;2023-05-14T03:14:48;14.85;;;7.93;;
16416;SDS011;8317;52.186;5.688;2023-05-14T03:17:15;17.10;;;7.28;;
16416;SDS011;8317;52.186;5.688;2023-05-14T03:19:43;11.05;;;7.50;;
16416;SDS011;8317;52.186;5.688;2023-05-14T03:22:11;10.98;;;7.28;;
16416;SDS011;8317;52.186;5.688;2023-05-14T03:24:38;11.68;;;7.28;;
16416;SDS011;8317;52.186;5.688;2023-05-14T03:27:06;19.13;;;8.45;;
16416;SDS011;8317;52.186;5.688;2023-05-14T03:29:33;14.95;;;7.57;;
16416;SDS011;8317;52.186;5.688;2023-05-14T03:32:00;12.93;;;7.82;;
16416;SDS011;8317;52.186;5.688;2023-05-14T03:34:27;14.48;;;7.70;;
16416;SDS011;8317;52.186;5.688;2023-05-14T03:36:54;14.32;;;7.30;;
16416;SDS011;8317;52.186;5.688;2023-05-14T03:39:23;14.05;;;7.85;;
16416;SDS011;8317;52.186;5.688;2023-05-14T03:41:50;16.00;;;8.30;;
16416;SDS011;8317;52.186;5.688;2023-05-14T03:44:17;16.20;;;8.10;;
16416;SDS011;8317;52.186;5.688;2023-05-14T03:46:44;12.40;;;7.00;;
16416;SDS011;8317;52.186;5.688;2023-05-14T03:49:11;9.85;;;6.72;;
16416;SDS011;8317;52.186;5.688;2023-05-14T03:51:39;15.00;;;7.60;;
16416;SDS011;8317;52.186;5.688;2023-05-14T03:54:06;17.35;;;7.90;;
16416;SDS011;8317;52.186;5.688;2023-05-14T03:56:34;13.15;;;7.78;;
16416;SDS011;8317;52.186;5.688;2023-05-14T03:59:01;10.98;;;7.35;;
16416;SDS011;8317;52.186;5.688;2023-05-14T04:01:29;14.40;;;8.02;;
16416;SDS011;8317;52.186;5.688;2023-05-14T04:03:56;11.90;;;7.35;;
16416;SDS011;8317;52.186;5.688;2023-05-14T04:06:23;16.63;;;7.72;;
16416;SDS011;8317;52.186;5.688;2023-05-14T04:08:50;13.45;;;8.23;;
16416;SDS011;8317;52.186;5.688;2023-05-14T04:11:18;14.73;;;7.97;;
16416;SDS011;8317;52.186;5.688;2023-05-14T04:13:46;11.63;;;7.55;;
16416;SDS011;8317;52.186;5.688;2023-05-14T04:16:13;15.18;;;7.05;;
16416;SDS011;8317;52.186;5.688;2023-05-14T04:18:40;13.45;;;7.35;;
16416;SDS011;8317;52.186;5.688;2023-05-14T04:21:07;16.10;;;7.78;;
16416;SDS011;8317;52.186;5.688;2023-05-14T04:23:34;13.73;;;7.15;;
16416;SDS011;8317;52.186;5.688;2023-05-14T04:26:01;14.48;;;8.35;;
16416;SDS011;8317;52.186;5.688;2023-05-14T04:28:29;12.10;;;7.43;;
16416;SDS011;8317;52.186;5.688;2023-05-14T04:30:57;12.98;;;7.55;;
16416;SDS011;8317;52.186;5.688;2023-05-14T04:33:25;15.48;;;8.25;;
16416;SDS011;8317;52.186;5.688;2023-05-14T04:35:52;13.38;;;7.45;;
16416;SDS011;8317;52.186;5.688;2023-05-14T04:38:19;18.00;;;7.93;;
16416;SDS011;8317;52.186;5.688;2023-05-14T04:40:47;12.95;;;7.40;;
16416;SDS011;8317;52.186;5.688;2023-05-14T04:43:14;13.68;;;6.95;;
16416;SDS011;8317;52.186;5.688;2023-05-14T04:45:41;16.27;;;7.70;;
16416;SDS011;8317;52.186;5.688;2023-05-14T04:48:10;18.85;;;7.70;;
16416;SDS011;8317;52.186;5.688;2023-05-14T04:50:36;11.20;;;7.22;;
16416;SDS011;8317;52.186;5.688;2023-05-14T04:53:03;14.07;;;7.72;;
16416;SDS011;8317;52.186;5.688;2023-05-14T04:55:31;13.40;;;6.65;;
16416;SDS011;8317;52.186;5.688;2023-05-14T04:57:58;14.30;;;7.93;;
16416;SDS011;8317;52.186;5.688;2023-05-14T05:00:25;18.52;;;7.50;;
16416;SDS011;8317;52.186;5.688;2023-05-14T05:02:52;15.75;;;8.60;;
16416;SDS011;8317;52.186;5.688;2023-05-14T05:05:21;15.63;;;8.38;;
16416;SDS011;8317;52.186;5.688;2023-05-14T05:07:48;12.63;;;7.75;;
16416;SDS011;8317;52.186;5.688;2023-05-14T05:10:15;11.32;;;7.13;;
16416;SDS011;8317;52.186;5.688;2023-05-14T05:12:42;15.82;;;8.30;;
16416;SDS011;8317;52.186;5.688;2023-05-14T05:15:09;11.02;;;7.25;;
16416;SDS011;8317;52.186;5.688;2023-05-14T05:17:36;12.60;;;6.82;;
16416;SDS011;8317;52.186;5.688;2023-05-14T05:20:04;15.57;;;7.63;;
16416;SDS011;8317;52.186;5.688;2023-05-14T05:22:35;11.55;;;7.28;;
16416;SDS011;8317;52.186;5.688;2023-05-14T05:25:02;9.93;;;6.82;;
16416;SDS011;8317;52.186;5.688;2023-05-14T05:27:30;24.27;;;8.15;;
16416;SDS011;8317;52.186;5.688;2023-05-14T05:29:57;14.20;;;7.63;;
16416;SDS011;8317;52.186;5.688;2023-05-14T05:32:24;16.52;;;7.47;;
16416;SDS011;8317;52.186;5.688;2023-05-14T05:34:51;12.23;;;7.13;;
16416;SDS011;8317;52.186;5.688;2023-05-14T05:37:18;15.70;;;7.82;;
16416;SDS011;8317;52.186;5.688;2023-05-14T05:39:47;15.60;;;6.75;;
16416;SDS011;8317;52.186;5.688;2023-05-14T05:42:14;16.27;;;7.45;;
16416;SDS011;8317;52.186;5.688;2023-05-14T05:44:41;14.10;;;7.10;;
16416;SDS011;8317;52.186;5.688;2023-05-14T05:47:09;15.85;;;7.95;;
16416;SDS011;8317;52.186;5.688;2023-05-14T05:49:36;15.85;;;7.10;;
16416;SDS011;8317;52.186;5.688;2023-05-14T05:52:03;17.52;;;7.40;;
16416;SDS011;8317;52.186;5.688;2023-05-14T05:54:30;15.45;;;6.72;;
16416;SDS011;8317;52.186;5.688;2023-05-14T05:56:58;13.07;;;7.20;;
16416;SDS011;8317;52.186;5.688;2023-05-14T05:59:26;11.63;;;6.95;;
16416;SDS011;8317;52.186;5.688;2023-05-14T06:01:52;12.55;;;7.95;;
16416;SDS011;8317;52.186;5.688;2023-05-14T06:04:19;11.30;;;7.63;;
16416;SDS011;8317;52.186;5.688;2023-05-14T06:06:46;12.25;;;7.10;;
16416;SDS011;8317;52.186;5.688;2023-05-14T06:09:13;11.25;;;6.50;;
16416;SDS011;8317;52.186;5.688;2023-05-14T06:11:40;15.32;;;7.63;;
16416;SDS011;8317;52.186;5.688;2023-05-14T06:14:08;19.23;;;7.40;;
16416;SDS011;8317;52.186;5.688;2023-05-14T06:16:35;12.75;;;6.30;;
16416;SDS011;8317;52.186;5.688;2023-05-14T06:19:02;9.30;;;6.05;;
16416;SDS011;8317;52.186;5.688;2023-05-14T06:21:29;11.13;;;6.75;;
16416;SDS011;8317;52.186;5.688;2023-05-14T06:23:56;11.70;;;7.50;;
16416;SDS011;8317;52.186;5.688;2023-05-14T06:26:22;15.05;;;6.97;;
16416;SDS011;8317;52.186;5.688;2023-05-14T06:28:50;11.52;;;6.60;;
16416;SDS011;8317;52.186;5.688;2023-05-14T06:31:21;13.10;;;6.90;;
16416;SDS011;8317;52.186;5.688;2023-05-14T06:33:48;10.88;;;6.93;;
16416;SDS011;8317;52.186;5.688;2023-05-14T06:36:15;13.20;;;7.68;;
16416;SDS011;8317;52.186;5.688;2023-05-14T06:38:42;12.63;;;7.40;;
16416;SDS011;8317;52.186;5.688;2023-05-14T06:41:09;12.48;;;6.43;;
16416;SDS011;8317;52.186;5.688;2023-05-14T06:43:36;14.85;;;6.88;;
16416;SDS011;8317;52.186;5.688;2023-05-14T06:46:03;10.07;;;7.13;;
16416;SDS011;8317;52.186;5.688;2023-05-14T06:48:31;13.13;;;7.72;;
16416;SDS011;8317;52.186;5.688;2023-05-14T06:50:58;12.48;;;7.88;;
16416;SDS011;8317;52.186;5.688;2023-05-14T06:53:24;16.25;;;8.05;;
16416;SDS011;8317;52.186;5.688;2023-05-14T06:55:51;25.75;;;8.25;;
16416;SDS011;8317;52.186;5.688;2023-05-14T06:58:18;11.55;;;7.78;;
16416;SDS011;8317;52.186;5.688;2023-05-14T07:00:45;12.38;;;6.70;;
16416;SDS011;8317;52.186;5.688;2023-05-14T07:03:13;13.48;;;7.57;;
16416;SDS011;8317;52.186;5.688;2023-05-14T07:05:41;14.43;;;7.25;;
16416;SDS011;8317;52.186;5.688;2023-05-14T07:08:10;14.50;;;7.55;;
16416;SDS011;8317;52.186;5.688;2023-05-14T07:10:37;9.20;;;6.70;;
16416;SDS011;8317;52.186;5.688;2023-05-14T07:13:04;11.95;;;6.35;;
16416;SDS011;8317;52.186;5.688;2023-05-14T07:15:31;15.02;;;7.45;;
16416;SDS011;8317;52.186;5.688;2023-05-14T07:17:58;15.45;;;6.88;;
16416;SDS011;8317;52.186;5.688;2023-05-14T07:20:25;12.13;;;7.10;;
16416;SDS011;8317;52.186;5.688;2023-05-14T07:22:54;9.30;;;5.85;;
16416;SDS011;8317;52.186;5.688;2023-05-14T07:25:21;12.38;;;7.18;;
16416;SDS011;8317;52.186;5.688;2023-05-14T07:27:48;9.02;;;6.13;;
16416;SDS011;8317;52.186;5.688;2023-05-14T07:30:15;11.88;;;6.15;;
16416;SDS011;8317;52.186;5.688;2023-05-14T07:32:43;9.40;;;6.57;;
16416;SDS011;8317;52.186;5.688;2023-05-14T07:35:10;7.80;;;5.65;;
16416;SDS011;8317;52.186;5.688;2023-05-14T07:37:37;11.13;;;5.95;;
16416;SDS011;8317;52.186;5.688;2023-05-14T07:40:07;8.70;;;6.15;;
16416;SDS011;8317;52.186;5.688;2023-05-14T07:42:34;9.27;;;5.82;;
16416;SDS011;8317;52.186;5.688;2023-05-14T07:45:01;7.88;;;5.07;;
16416;SDS011;8317;52.186;5.688;2023-05-14T07:47:28;8.02;;;5.50;;
16416;SDS011;8317;52.186;5.688;2023-05-14T07:49:56;10.05;;;4.88;;
16416;SDS011;8317;52.186;5.688;2023-05-14T07:52:23;14.90;;;5.97;;
16416;SDS011;8317;52.186;5.688;2023-05-14T07:54:50;7.40;;;5.05;;
16416;SDS011;8317;52.186;5.688;2023-05-14T07:57:19;11.35;;;5.72;;
16416;SDS011;8317;52.186;5.688;2023-05-14T07:59:47;8.27;;;5.07;;
16416;SDS011;8317;52.186;5.688;2023-05-14T08:02:14;6.55;;;5.38;;
16416;SDS011;8317;52.186;5.688;2023-05-14T08:04:41;5.72;;;5.00;;
16416;SDS011;8317;52.186;5.688;2023-05-14T08:07:08;9.43;;;5.13;;
16416;SDS011;8317;52.186;5.688;2023-05-14T08:09:36;8.75;;;4.60;;
16416;SDS011;8317;52.186;5.688;2023-05-14T08:12:03;5.60;;;4.15;;
16416;SDS011;8317;52.186;5.688;2023-05-14T08:14:32;5.40;;;4.07;;
16416;SDS011;8317;52.186;5.688;2023-05-14T08:16:59;10.05;;;5.35;;
16416;SDS011;8317;52.186;5.688;2023-05-14T08:19:26;9.77;;;5.18;;
16416;SDS011;8317;52.186;5.688;2023-05-14T08:21:53;5.13;;;4.07;;
16416;SDS011;8317;52.186;5.688;2023-05-14T08:24:21;6.63;;;4.53;;
16416;SDS011;8317;52.186;5.688;2023-05-14T08:26:48;11.13;;;4.60;;
16416;SDS011;8317;52.186;5.688;2023-05-14T08:29:15;8.00;;;4.32;;
16416;SDS011;8317;52.186;5.688;2023-05-14T08:31:44;8.68;;;4.68;;
16416;SDS011;8317;52.186;5.688;2023-05-14T08:34:11;8.30;;;4.28;;
16416;SDS011;8317;52.186;5.688;2023-05-14T08:36:38;8.30;;;4.30;;
16416;SDS011;8317;52.186;5.688;2023-05-14T08:39:05;4.70;;;4.20;;
16416;SDS011;8317;52.186;5.688;2023-05-14T08:41:32;7.22;;;4.65;;
16416;SDS011;8317;52.186;5.688;2023-05-14T08:44:02;6.95;;;4.30;;
16416;SDS011;8317;52.186;5.688;2023-05-14T08:46:30;6.78;;;4.28;;
16416;SDS011;8317;52.186;5.688;2023-05-14T08:49:02;5.85;;;4.15;;
16416;SDS011;8317;52.186;5.688;2023-05-14T08:51:32;9.82;;;4.50;;
16416;SDS011;8317;52.186;5.688;2023-05-14T08:54:01;5.55;;;4.13;;
16416;SDS011;8317;52.186;5.688;2023-05-14T08:56:28;7.72;;;4.32;;
16416;SDS011;8317;52.186;5.688;2023-05-14T08:58:58;3.75;;;3.38;;
16416;SDS011;8317;52.186;5.688;2023-05-14T09:01:25;6.85;;;3.88;;
16416;SDS011;8317;52.186;5.688;2023-05-14T09:03:53;5.95;;;4.03;;
16416;SDS011;8317;52.186;5.688;2023-05-14T09:06:22;3.83;;;3.45;;
16416;SDS011;8317;52.186;5.688;2023-05-14T09:08:50;9.73;;;3.63;;
16416;SDS011;8317;52.186;5.688;2023-05-14T09:11:18;6.30;;;3.67;;
16416;SDS011;8317;52.186;5.688;2023-05-14T09:13:45;5.57;;;3.92;;
16416;SDS011;8317;52.186;5.688;2023-05-14T09:16:12;3.83;;;3.47;;
16416;SDS011;8317;52.186;5.688;2023-05-14T09:18:42;4.75;;;3.20;;
16416;SDS011;8317;52.186;5.688;2023-05-14T09:21:09;8.48;;;4.35;;
16416;SDS011;8317;52.186;5.688;2023-05-14T09:23:40;10.10;;;3.65;;
16416;SDS011;8317;52.186;5.688;2023-05-14T09:26:07;3.40;;;3.05;;
16416;SDS011;8317;52.186;5.688;2023-05-14T09:28:34;5.72;;;3.55;;
16416;SDS011;8317;52.186;5.688;2023-05-14T09:31:01;5.40;;;2.63;;
16416;SDS011;8317;52.186;5.688;2023-05-14T09:33:28;6.40;;;3.42;;
16416;SDS011;8317;52.186;5.688;2023-05-14T09:35:57;6.00;;;3.13;;
16416;SDS011;8317;52.186;5.688;2023-05-14T09:38:27;6.72;;;3.72;;
16416;SDS011;8317;52.186;5.688;2023-05-14T09:40:56;5.72;;;3.50;;
16416;SDS011;8317;52.186;5.688;2023-05-14T09:43:23;5.45;;;2.97;;
16416;SDS011;8317;52.186;5.688;2023-05-14T09:45:51;5.32;;;3.67;;
16416;SDS011;8317;52.186;5.688;2023-05-14T09:48:18;3.63;;;2.75;;
16416;SDS011;8317;52.186;5.688;2023-05-14T09:50:46;4.07;;;3.00;;
16416;SDS011;8317;52.186;5.688;2023-05-14T09:53:13;10.65;;;3.00;;
16416;SDS011;8317;52.186;5.688;2023-05-14T09:55:41;4.22;;;2.42;;
16416;SDS011;8317;52.186;5.688;2023-05-14T09:58:10;4.63;;;2.97;;
16416;SDS011;8317;52.186;5.688;2023-05-14T10:00:38;4.88;;;2.78;;
16416;SDS011;8317;52.186;5.688;2023-05-14T10:03:06;6.07;;;3.28;;
16416;SDS011;8317;52.186;5.688;2023-05-14T10:05:34;8.73;;;2.85;;
16416;SDS011;8317;52.186;5.688;2023-05-14T10:08:02;4.03;;;2.85;;
16416;SDS011;8317;52.186;5.688;2023-05-14T10:10:31;3.35;;;2.67;;
16416;SDS011;8317;52.186;5.688;2023-05-14T10:13:00;8.88;;;3.38;;
16416;SDS011;8317;52.186;5.688;2023-05-14T10:15:32;8.90;;;3.33;;
16416;SDS011;8317;52.186;5.688;2023-05-14T10:18:03;5.72;;;2.80;;
16416;SDS011;8317;52.186;5.688;2023-05-14T10:20:32;5.75;;;2.75;;
16416;SDS011;8317;52.186;5.688;2023-05-14T10:22:59;3.35;;;2.35;;
16416;SDS011;8317;52.186;5.688;2023-05-14T10:25:26;4.18;;;2.25;;
16416;SDS011;8317;52.186;5.688;2023-05-14T10:27:53;5.35;;;3.40;;
16416;SDS011;8317;52.186;5.688;2023-05-14T10:30:21;2.78;;;2.28;;
16416;SDS011;8317;52.186;5.688;2023-05-14T10:32:49;5.75;;;2.80;;
16416;SDS011;8317;52.186;5.688;2023-05-14T10:35:31;3.78;;;2.72;;
16416;SDS011;8317;52.186;5.688;2023-05-14T10:38:16;3.88;;;2.80;;
16416;SDS011;8317;52.186;5.688;2023-05-14T10:40:43;4.93;;;2.80;;
16416;SDS011;8317;52.186;5.688;2023-05-14T10:43:10;4.28;;;2.60;;
16416;SDS011;8317;52.186;5.688;2023-05-14T10:45:37;3.55;;;2.60;;
16416;SDS011;8317;52.186;5.688;2023-05-14T10:48:06;4.18;;;2.55;;
16416;SDS011;8317;52.186;5.688;2023-05-14T10:50:33;2.90;;;2.30;;
16416;SDS011;8317;52.186;5.688;2023-05-14T10:53:01;3.20;;;2.60;;
16416;SDS011;8317;52.186;5.688;2023-05-14T10:55:29;4.03;;;2.45;;
16416;SDS011;8317;52.186;5.688;2023-05-14T10:57:57;2.33;;;1.98;;
16416;SDS011;8317;52.186;5.688;2023-05-14T11:00:25;3.42;;;2.30;;
16416;SDS011;8317;52.186;5.688;2023-05-14T11:02:54;2.83;;;1.80;;
16416;SDS011;8317;52.186;5.688;2023-05-14T11:05:23;7.20;;;2.90;;
16416;SDS011;8317;52.186;5.688;2023-05-14T11:07:51;5.60;;;3.35;;
16416;SDS011;8317;52.186;5.688;2023-05-14T11:10:21;7.13;;;3.65;;
16416;SDS011;8317;52.186;5.688;2023-05-14T11:12:49;5.95;;;3.10;;
16416;SDS011;8317;52.186;5.688;2023-05-14T11:15:17;3.28;;;2.25;;
16416;SDS011;8317;52.186;5.688;2023-05-14T11:17:45;8.70;;;4.00;;
16416;SDS011;8317;52.186;5.688;2023-05-14T11:20:13;2.55;;;2.35;;
16416;SDS011;8317;52.186;5.688;2023-05-14T11:22:42;5.28;;;2.30;;
16416;SDS011;8317;52.186;5.688;2023-05-14T11:25:10;4.82;;;2.80;;
16416;SDS011;8317;52.186;5.688;2023-05-14T11:27:38;7.70;;;3.35;;
16416;SDS011;8317;52.186;5.688;2023-05-14T11:30:10;3.25;;;2.65;;
16416;SDS011;8317;52.186;5.688;2023-05-14T11:32:38;8.43;;;4.63;;
16416;SDS011;8317;52.186;5.688;2023-05-14T11:35:05;5.93;;;4.10;;
16416;SDS011;8317;52.186;5.688;2023-05-14T11:37:33;8.05;;;3.63;;
16416;SDS011;8317;52.186;5.688;2023-05-14T11:40:01;5.15;;;4.05;;
16416;SDS011;8317;52.186;5.688;2023-05-14T11:42:29;8.90;;;3.65;;
16416;SDS011;8317;52.186;5.688;2023-05-14T11:44:56;11.27;;;3.67;;
16416;SDS011;8317;52.186;5.688;2023-05-14T11:47:23;5.63;;;3.58;;
16416;SDS011;8317;52.186;5.688;2023-05-14T11:49:50;4.30;;;3.47;;
16416;SDS011;8317;52.186;5.688;2023-05-14T11:52:19;4.75;;;2.03;;
16416;SDS011;8317;52.186;5.688;2023-05-14T11:54:46;6.28;;;3.53;;
16416;SDS011;8317;52.186;5.688;2023-05-14T11:57:17;5.50;;;3.97;;
16416;SDS011;8317;52.186;5.688;2023-05-14T11:59:44;4.78;;;4.18;;
16416;SDS011;8317;52.186;5.688;2023-05-14T12:02:12;6.32;;;4.07;;
16416;SDS011;8317;52.186;5.688;2023-05-14T12:04:39;7.82;;;4.50;;
16416;SDS011;8317;52.186;5.688;2023-05-14T12:07:08;6.18;;;3.70;;
16416;SDS011;8317;52.186;5.688;2023-05-14T12:09:35;5.95;;;3.50;;
16416;SDS011;8317;52.186;5.688;2023-05-14T12:12:06;4.88;;;3.20;;
16416;SDS011;8317;52.186;5.688;2023-05-14T12:14:37;4.75;;;3.28;;
16416;SDS011;8317;52.186;5.688;2023-05-14T12:17:09;9.10;;;4.60;;
16416;SDS011;8317;52.186;5.688;2023-05-14T12:19:38;7.13;;;3.00;;
16416;SDS011;8317;52.186;5.688;2023-05-14T12:22:06;3.92;;;3.38;;
16416;SDS011;8317;52.186;5.688;2023-05-14T12:24:33;2.90;;;2.60;;
16416;SDS011;8317;52.186;5.688;2023-05-14T12:27:01;3.55;;;2.70;;
16416;SDS011;8317;52.186;5.688;2023-05-14T12:29:28;3.95;;;3.28;;
16416;SDS011;8317;52.186;5.688;2023-05-14T12:31:56;8.23;;;3.53;;
16416;SDS011;8317;52.186;5.688;2023-05-14T12:34:24;11.13;;;3.67;;
16416;SDS011;8317;52.186;5.688;2023-05-14T12:36:51;4.93;;;3.55;;
16416;SDS011;8317;52.186;5.688;2023-05-14T12:39:18;5.63;;;3.75;;
16416;SDS011;8317;52.186;5.688;2023-05-14T12:41:45;3.42;;;2.80;;
16416;SDS011;8317;52.186;5.688;2023-05-14T12:44:12;7.82;;;3.95;;
16416;SDS011;8317;52.186;5.688;2023-05-14T12:46:39;9.90;;;3.72;;
16416;SDS011;8317;52.186;5.688;2023-05-14T12:49:08;6.07;;;3.45;;
16416;SDS011;8317;52.186;5.688;2023-05-14T12:51:35;7.95;;;3.25;;
16416;SDS011;8317;52.186;5.688;2023-05-14T12:54:02;4.72;;;3.30;;
16416;SDS011;8317;52.186;5.688;2023-05-14T12:56:29;5.57;;;4.07;;
16416;SDS011;8317;52.186;5.688;2023-05-14T12:58:57;5.15;;;4.20;;
16416;SDS011;8317;52.186;5.688;2023-05-14T13:01:24;5.50;;;3.45;;
16416;SDS011;8317;52.186;5.688;2023-05-14T13:03:51;6.72;;;4.10;;
16416;SDS011;8317;52.186;5.688;2023-05-14T13:06:20;6.10;;;4.38;;
16416;SDS011;8317;52.186;5.688;2023-05-14T13:08:47;10.95;;;4.10;;
16416;SDS011;8317;52.186;5.688;2023-05-14T13:11:15;6.43;;;4.18;;
16416;SDS011;8317;52.186;5.688;2023-05-14T13:13:42;6.47;;;3.63;;
16416;SDS011;8317;52.186;5.688;2023-05-14T13:16:09;5.82;;;4.10;;
16416;SDS011;8317;52.186;5.688;2023-05-14T13:18:40;7.85;;;4.55;;
16416;SDS011;8317;52.186;5.688;2023-05-14T13:21:07;5.32;;;2.80;;
16416;SDS011;8317;52.186;5.688;2023-05-14T13:23:37;2.50;;;2.30;;
16416;SDS011;8317;52.186;5.688;2023-05-14T13:26:05;4.20;;;2.78;;
16416;SDS011;8317;52.186;5.688;2023-05-14T13:28:32;11.07;;;3.70;;
16416;SDS011;8317;52.186;5.688;2023-05-14T13:31:03;9.40;;;4.15;;
16416;SDS011;8317;52.186;5.688;2023-05-14T13:33:31;7.28;;;4.07;;
16416;SDS011;8317;52.186;5.688;2023-05-14T13:35:58;6.18;;;3.70;;
16416;SDS011;8317;52.186;5.688;2023-05-14T13:38:25;8.48;;;4.45;;
16416;SDS011;8317;52.186;5.688;2023-05-14T13:40:54;6.93;;;2.40;;
16416;SDS011;8317;52.186;5.688;2023-05-14T13:43:26;4.55;;;3.67;;
16416;SDS011;8317;52.186;5.688;2023-05-14T13:45:53;8.18;;;3.63;;
16416;SDS011;8317;52.186;5.688;2023-05-14T13:48:20;7.38;;;3.30;;
16416;SDS011;8317;52.186;5.688;2023-05-14T13:50:48;6.32;;;4.05;;
16416;SDS011;8317;52.186;5.688;2023-05-14T13:53:15;6.30;;;3.47;;
16416;SDS011;8317;52.186;5.688;2023-05-14T13:55:43;7.30;;;3.25;;
16416;SDS011;8317;52.186;5.688;2023-05-14T13:58:11;3.42;;;2.55;;
16416;SDS011;8317;52.186;5.688;2023-05-14T14:00:39;5.32;;;3.40;;
16416;SDS011;8317;52.186;5.688;2023-05-14T14:03:06;5.68;;;3.45;;
16416;SDS011;8317;52.186;5.688;2023-05-14T14:05:34;3.72;;;2.80;;
16416;SDS011;8317;52.186;5.688;2023-05-14T14:08:01;4.22;;;3.50;;
16416;SDS011;8317;52.186;5.688;2023-05-14T14:10:28;3.92;;;2.80;;
16416;SDS011;8317;52.186;5.688;2023-05-14T14:12:55;6.88;;;2.90;;
16416;SDS011;8317;52.186;5.688;2023-05-14T14:15:24;4.57;;;3.25;;
16416;SDS011;8317;52.186;5.688;2023-05-14T14:17:51;4.13;;;2.45;;
16416;SDS011;8317;52.186;5.688;2023-05-14T14:20:18;5.93;;;3.00;;
16416;SDS011;8317;52.186;5.688;2023-05-14T14:22:45;7.93;;;3.17;;
16416;SDS011;8317;52.186;5.688;2023-05-14T14:25:13;6.45;;;3.10;;
16416;SDS011;8317;52.186;5.688;2023-05-14T14:27:40;5.95;;;3.13;;
16416;SDS011;8317;52.186;5.688;2023-05-14T14:30:08;5.78;;;3.30;;
16416;SDS011;8317;52.186;5.688;2023-05-14T14:32:41;3.67;;;2.40;;
16416;SDS011;8317;52.186;5.688;2023-05-14T14:35:08;3.75;;;3.15;;
16416;SDS011;8317;52.186;5.688;2023-05-14T14:37:36;3.63;;;2.55;;
16416;SDS011;8317;52.186;5.688;2023-05-14T14:40:04;7.22;;;3.50;;
16416;SDS011;8317;52.186;5.688;2023-05-14T14:42:33;7.22;;;3.88;;
16416;SDS011;8317;52.186;5.688;2023-05-14T14:45:01;5.35;;;3.47;;
16416;SDS011;8317;52.186;5.688;2023-05-14T14:47:28;4.45;;;3.30;;
16416;SDS011;8317;52.186;5.688;2023-05-14T14:49:57;5.28;;;2.92;;
16416;SDS011;8317;52.186;5.688;2023-05-14T14:52:24;6.90;;;3.38;;
16416;SDS011;8317;52.186;5.688;2023-05-14T14:54:52;4.13;;;2.95;;
16416;SDS011;8317;52.186;5.688;2023-05-14T14:57:19;3.55;;;1.90;;
16416;SDS011;8317;52.186;5.688;2023-05-14T14:59:46;3.20;;;2.30;;